sensor_id;sensor_type;location;lat;lon;timestamp;P1;durP1;ratioP1;P2;durP2;ratioP2
21148;SDS011;10732;51.472;6.466;2022-12-20T00:01:49;3.22;;;1.80;;
21148;SDS011;10732;51.472;6.466;2022-12-20T00:04:15;2.75;;;1.73;;
21148;SDS011;10732;51.472;6.466;2022-12-20T00:06:40;2.92;;;1.80;;
21148;SDS011;10732;51.472;6.466;2022-12-20T00:09:06;5.13;;;2.22;;
21148;SDS011;10732;51.472;6.466;2022-12-20T00:11:34;3.05;;;1.88;;
21148;SDS011;10732;51.472;6.466;2022-12-20T00:14:02;4.65;;;2.00;;
21148;SDS011;10732;51.472;6.466;2022-12-20T00:16:28;2.42;;;2.05;;
21148;SDS011;10732;51.472;6.466;2022-12-20T00:18:58;2.58;;;1.80;;
21148;SDS011;10732;51.472;6.466;2022-12-20T00:21:25;3.78;;;1.90;;
21148;SDS011;10732;51.472;6.466;2022-12-20T00:23:51;2.47;;;1.67;;
21148;SDS011;10732;51.472;6.466;2022-12-20T00:26:19;3.47;;;1.55;;
21148;SDS011;10732;51.472;6.466;2022-12-20T00:28:46;2.67;;;1.77;;
21148;SDS011;10732;51.472;6.466;2022-12-20T00:31:13;3.05;;;1.83;;
21148;SDS011;10732;51.472;6.466;2022-12-20T00:33:40;2.30;;;1.70;;
21148;SDS011;10732;51.472;6.466;2022-12-20T00:36:08;2.90;;;2.08;;
21148;SDS011;10732;51.472;6.466;2022-12-20T00:38:34;3.00;;;1.60;;
21148;SDS011;10732;51.472;6.466;2022-12-20T00:41:01;2.55;;;1.90;;
21148;SDS011;10732;51.472;6.466;2022-12-20T00:43:35;6.60;;;1.90;;
21148;SDS011;10732;51.472;6.466;2022-12-20T00:46:01;2.67;;;1.60;;
21148;SDS011;10732;51.472;6.466;2022-12-20T00:48:27;2.75;;;1.70;;
21148;SDS011;10732;51.472;6.466;2022-12-20T00:50:58;2.22;;;1.67;;
21148;SDS011;10732;51.472;6.466;2022-12-20T00:53:24;4.35;;;2.00;;
21148;SDS011;10732;51.472;6.466;2022-12-20T00:55:50;2.55;;;1.60;;
21148;SDS011;10732;51.472;6.466;2022-12-20T00:58:16;3.65;;;1.73;;
21148;SDS011;10732;51.472;6.466;2022-12-20T01:00:41;3.03;;;1.60;;
21148;SDS011;10732;51.472;6.466;2022-12-20T01:03:07;4.35;;;2.00;;
21148;SDS011;10732;51.472;6.466;2022-12-20T01:05:33;4.60;;;1.98;;
21148;SDS011;10732;51.472;6.466;2022-12-20T01:07:59;4.22;;;1.98;;
21148;SDS011;10732;51.472;6.466;2022-12-20T01:10:25;2.50;;;1.52;;
21148;SDS011;10732;51.472;6.466;2022-12-20T01:12:51;4.72;;;1.85;;
21148;SDS011;10732;51.472;6.466;2022-12-20T01:15:17;2.05;;;1.60;;
21148;SDS011;10732;51.472;6.466;2022-12-20T01:17:42;2.10;;;1.85;;
21148;SDS011;10732;51.472;6.466;2022-12-20T01:20:08;3.30;;;1.73;;
21148;SDS011;10732;51.472;6.466;2022-12-20T01:22:35;4.97;;;2.35;;
21148;SDS011;10732;51.472;6.466;2022-12-20T01:25:00;2.75;;;1.98;;
21148;SDS011;10732;51.472;6.466;2022-12-20T01:27:26;5.63;;;1.95;;
21148;SDS011;10732;51.472;6.466;2022-12-20T01:29:52;1.80;;;1.52;;
21148;SDS011;10732;51.472;6.466;2022-12-20T01:32:18;1.85;;;1.55;;
21148;SDS011;10732;51.472;6.466;2022-12-20T01:34:44;2.35;;;1.80;;
21148;SDS011;10732;51.472;6.466;2022-12-20T01:37:10;2.95;;;1.67;;
21148;SDS011;10732;51.472;6.466;2022-12-20T01:39:36;3.22;;;2.08;;
21148;SDS011;10732;51.472;6.466;2022-12-20T01:42:02;2.80;;;1.58;;
21148;SDS011;10732;51.472;6.466;2022-12-20T01:46:54;3.22;;;1.70;;
21148;SDS011;10732;51.472;6.466;2022-12-20T01:52:01;2.75;;;1.60;;
21148;SDS011;10732;51.472;6.466;2022-12-20T01:54:31;2.78;;;1.55;;
21148;SDS011;10732;51.472;6.466;2022-12-20T01:57:08;2.92;;;1.60;;
21148;SDS011;10732;51.472;6.466;2022-12-20T01:59:37;2.35;;;1.60;;
21148;SDS011;10732;51.472;6.466;2022-12-20T02:02:07;1.60;;;1.50;;
21148;SDS011;10732;51.472;6.466;2022-12-20T02:04:34;2.03;;;1.40;;
21148;SDS011;10732;51.472;6.466;2022-12-20T02:07:00;3.20;;;1.67;;
21148;SDS011;10732;51.472;6.466;2022-12-20T02:09:28;4.03;;;1.80;;
21148;SDS011;10732;51.472;6.466;2022-12-20T02:12:14;2.70;;;1.70;;
21148;SDS011;10732;51.472;6.466;2022-12-20T02:15:05;3.95;;;1.80;;
21148;SDS011;10732;51.472;6.466;2022-12-20T02:26:25;2.03;;;1.60;;
21148;SDS011;10732;51.472;6.466;2022-12-20T02:29:19;2.05;;;1.67;;
21148;SDS011;10732;51.472;6.466;2022-12-20T02:32:06;3.58;;;1.63;;
21148;SDS011;10732;51.472;6.466;2022-12-20T02:34:37;3.00;;;1.92;;
21148;SDS011;10732;51.472;6.466;2022-12-20T02:37:05;3.47;;;1.70;;
21148;SDS011;10732;51.472;6.466;2022-12-20T02:39:31;3.17;;;1.73;;
21148;SDS011;10732;51.472;6.466;2022-12-20T02:42:05;4.68;;;1.88;;
21148;SDS011;10732;51.472;6.466;2022-12-20T02:44:36;3.65;;;1.80;;
21148;SDS011;10732;51.472;6.466;2022-12-20T02:50:09;3.13;;;2.10;;
21148;SDS011;10732;51.472;6.466;2022-12-20T02:52:36;3.72;;;1.80;;
21148;SDS011;10732;51.472;6.466;2022-12-20T02:55:03;2.45;;;2.10;;
21148;SDS011;10732;51.472;6.466;2022-12-20T02:57:37;2.35;;;1.73;;
21148;SDS011;10732;51.472;6.466;2022-12-20T03:00:17;3.38;;;1.98;;
21148;SDS011;10732;51.472;6.466;2022-12-20T03:02:44;2.72;;;1.73;;
21148;SDS011;10732;51.472;6.466;2022-12-20T03:05:31;3.22;;;1.85;;
21148;SDS011;10732;51.472;6.466;2022-12-20T03:07:59;2.85;;;1.77;;
21148;SDS011;10732;51.472;6.466;2022-12-20T03:10:25;4.65;;;2.08;;
21148;SDS011;10732;51.472;6.466;2022-12-20T03:12:50;2.80;;;1.77;;
21148;SDS011;10732;51.472;6.466;2022-12-20T03:15:16;3.53;;;1.85;;
21148;SDS011;10732;51.472;6.466;2022-12-20T03:17:42;7.50;;;2.63;;
21148;SDS011;10732;51.472;6.466;2022-12-20T03:20:08;4.07;;;2.13;;
21148;SDS011;10732;51.472;6.466;2022-12-20T03:22:35;2.75;;;1.98;;
21148;SDS011;10732;51.472;6.466;2022-12-20T03:25:01;3.60;;;2.08;;
21148;SDS011;10732;51.472;6.466;2022-12-20T03:27:27;3.10;;;2.30;;
21148;SDS011;10732;51.472;6.466;2022-12-20T03:29:53;4.50;;;2.17;;
21148;SDS011;10732;51.472;6.466;2022-12-20T03:32:19;2.65;;;1.90;;
21148;SDS011;10732;51.472;6.466;2022-12-20T03:34:45;4.65;;;2.10;;
21148;SDS011;10732;51.472;6.466;2022-12-20T03:37:11;5.53;;;1.98;;
21148;SDS011;10732;51.472;6.466;2022-12-20T03:39:37;3.22;;;2.15;;
21148;SDS011;10732;51.472;6.466;2022-12-20T03:42:02;3.42;;;2.00;;
21148;SDS011;10732;51.472;6.466;2022-12-20T03:44:28;6.65;;;2.30;;
21148;SDS011;10732;51.472;6.466;2022-12-20T03:46:53;3.47;;;2.00;;
21148;SDS011;10732;51.472;6.466;2022-12-20T03:49:19;2.40;;;2.15;;
21148;SDS011;10732;51.472;6.466;2022-12-20T03:51:44;4.38;;;2.35;;
21148;SDS011;10732;51.472;6.466;2022-12-20T03:54:10;4.35;;;2.30;;
21148;SDS011;10732;51.472;6.466;2022-12-20T03:56:36;2.60;;;2.30;;
21148;SDS011;10732;51.472;6.466;2022-12-20T03:59:01;3.97;;;2.50;;
21148;SDS011;10732;51.472;6.466;2022-12-20T04:01:27;5.10;;;2.38;;
21148;SDS011;10732;51.472;6.466;2022-12-20T04:03:53;3.70;;;2.15;;
21148;SDS011;10732;51.472;6.466;2022-12-20T04:06:20;4.63;;;2.50;;
21148;SDS011;10732;51.472;6.466;2022-12-20T04:08:46;6.43;;;2.60;;
21148;SDS011;10732;51.472;6.466;2022-12-20T04:11:12;5.45;;;2.60;;
21148;SDS011;10732;51.472;6.466;2022-12-20T04:13:41;3.05;;;2.58;;
21148;SDS011;10732;51.472;6.466;2022-12-20T04:16:18;2.78;;;2.47;;
21148;SDS011;10732;51.472;6.466;2022-12-20T04:18:45;3.20;;;2.30;;
21148;SDS011;10732;51.472;6.466;2022-12-20T04:21:11;3.30;;;2.33;;
21148;SDS011;10732;51.472;6.466;2022-12-20T04:23:38;5.40;;;2.78;;
21148;SDS011;10732;51.472;6.466;2022-12-20T04:26:05;3.67;;;2.45;;
21148;SDS011;10732;51.472;6.466;2022-12-20T04:28:32;6.97;;;2.58;;
21148;SDS011;10732;51.472;6.466;2022-12-20T04:30:58;4.35;;;2.90;;
21148;SDS011;10732;51.472;6.466;2022-12-20T04:33:24;3.63;;;2.72;;
21148;SDS011;10732;51.472;6.466;2022-12-20T04:35:51;3.75;;;2.50;;
21148;SDS011;10732;51.472;6.466;2022-12-20T04:38:17;3.88;;;2.80;;
21148;SDS011;10732;51.472;6.466;2022-12-20T04:40:44;4.10;;;2.58;;
21148;SDS011;10732;51.472;6.466;2022-12-20T04:43:09;6.20;;;2.95;;
21148;SDS011;10732;51.472;6.466;2022-12-20T04:45:35;10.75;;;2.83;;
21148;SDS011;10732;51.472;6.466;2022-12-20T04:48:00;4.22;;;2.83;;
21148;SDS011;10732;51.472;6.466;2022-12-20T04:50:26;4.50;;;3.05;;
21148;SDS011;10732;51.472;6.466;2022-12-20T04:52:51;3.85;;;2.63;;
21148;SDS011;10732;51.472;6.466;2022-12-20T04:55:39;6.10;;;2.97;;
21148;SDS011;10732;51.472;6.466;2022-12-20T04:58:05;6.28;;;2.85;;
21148;SDS011;10732;51.472;6.466;2022-12-20T05:00:32;4.90;;;3.13;;
21148;SDS011;10732;51.472;6.466;2022-12-20T05:02:58;5.07;;;3.30;;
21148;SDS011;10732;51.472;6.466;2022-12-20T05:05:24;6.50;;;3.80;;
21148;SDS011;10732;51.472;6.466;2022-12-20T05:07:50;6.50;;;3.75;;
21148;SDS011;10732;51.472;6.466;2022-12-20T05:10:16;3.97;;;3.30;;
21148;SDS011;10732;51.472;6.466;2022-12-20T05:12:41;9.10;;;3.70;;
21148;SDS011;10732;51.472;6.466;2022-12-20T05:15:07;8.88;;;3.97;;
21148;SDS011;10732;51.472;6.466;2022-12-20T05:17:33;5.82;;;3.88;;
21148;SDS011;10732;51.472;6.466;2022-12-20T05:19:59;5.90;;;3.72;;
21148;SDS011;10732;51.472;6.466;2022-12-20T05:22:25;5.22;;;3.70;;
21148;SDS011;10732;51.472;6.466;2022-12-20T05:25:09;7.38;;;4.00;;
21148;SDS011;10732;51.472;6.466;2022-12-20T05:27:54;5.28;;;3.88;;
21148;SDS011;10732;51.472;6.466;2022-12-20T05:30:20;7.97;;;4.18;;
21148;SDS011;10732;51.472;6.466;2022-12-20T05:32:46;7.00;;;4.15;;
21148;SDS011;10732;51.472;6.466;2022-12-20T05:35:11;9.07;;;4.35;;
21148;SDS011;10732;51.472;6.466;2022-12-20T05:37:37;7.88;;;4.78;;
21148;SDS011;10732;51.472;6.466;2022-12-20T05:40:03;8.57;;;4.85;;
21148;SDS011;10732;51.472;6.466;2022-12-20T05:42:29;8.32;;;4.55;;
21148;SDS011;10732;51.472;6.466;2022-12-20T05:44:54;6.68;;;4.57;;
21148;SDS011;10732;51.472;6.466;2022-12-20T05:47:20;7.28;;;4.43;;
21148;SDS011;10732;51.472;6.466;2022-12-20T05:49:46;6.85;;;4.53;;
21148;SDS011;10732;51.472;6.466;2022-12-20T05:52:11;7.25;;;4.18;;
21148;SDS011;10732;51.472;6.466;2022-12-20T05:54:37;6.95;;;4.57;;
21148;SDS011;10732;51.472;6.466;2022-12-20T05:57:02;7.00;;;4.45;;
21148;SDS011;10732;51.472;6.466;2022-12-20T05:59:28;5.70;;;4.60;;
21148;SDS011;10732;51.472;6.466;2022-12-20T06:01:53;8.23;;;4.80;;
21148;SDS011;10732;51.472;6.466;2022-12-20T06:04:19;8.55;;;4.47;;
21148;SDS011;10732;51.472;6.466;2022-12-20T06:06:45;7.35;;;4.60;;
21148;SDS011;10732;51.472;6.466;2022-12-20T06:09:10;7.43;;;5.28;;
21148;SDS011;10732;51.472;6.466;2022-12-20T06:11:36;6.72;;;4.45;;
21148;SDS011;10732;51.472;6.466;2022-12-20T06:14:02;6.07;;;4.65;;
21148;SDS011;10732;51.472;6.466;2022-12-20T06:16:27;9.25;;;4.85;;
21148;SDS011;10732;51.472;6.466;2022-12-20T06:18:53;8.13;;;4.70;;
21148;SDS011;10732;51.472;6.466;2022-12-20T06:21:19;6.90;;;4.65;;
21148;SDS011;10732;51.472;6.466;2022-12-20T06:23:44;7.43;;;4.32;;
21148;SDS011;10732;51.472;6.466;2022-12-20T06:26:10;8.48;;;4.07;;
21148;SDS011;10732;51.472;6.466;2022-12-20T06:28:35;9.45;;;4.70;;
21148;SDS011;10732;51.472;6.466;2022-12-20T06:31:06;10.15;;;4.97;;
21148;SDS011;10732;51.472;6.466;2022-12-20T06:33:34;7.15;;;4.25;;
21148;SDS011;10732;51.472;6.466;2022-12-20T06:36:00;6.03;;;4.13;;
21148;SDS011;10732;51.472;6.466;2022-12-20T06:38:25;6.13;;;4.22;;
21148;SDS011;10732;51.472;6.466;2022-12-20T06:40:51;7.78;;;4.35;;
21148;SDS011;10732;51.472;6.466;2022-12-20T06:43:16;8.43;;;4.40;;
21148;SDS011;10732;51.472;6.466;2022-12-20T06:45:42;5.45;;;3.95;;
21148;SDS011;10732;51.472;6.466;2022-12-20T06:48:08;10.15;;;4.10;;
21148;SDS011;10732;51.472;6.466;2022-12-20T06:50:34;6.35;;;4.30;;
21148;SDS011;10732;51.472;6.466;2022-12-20T06:52:59;7.07;;;3.95;;
21148;SDS011;10732;51.472;6.466;2022-12-20T06:55:25;8.25;;;4.10;;
21148;SDS011;10732;51.472;6.466;2022-12-20T06:57:50;6.30;;;3.92;;
21148;SDS011;10732;51.472;6.466;2022-12-20T07:00:16;5.30;;;3.83;;
21148;SDS011;10732;51.472;6.466;2022-12-20T07:02:42;4.47;;;3.63;;
21148;SDS011;10732;51.472;6.466;2022-12-20T07:05:09;5.30;;;3.45;;
21148;SDS011;10732;51.472;6.466;2022-12-20T07:07:35;5.22;;;3.30;;
21148;SDS011;10732;51.472;6.466;2022-12-20T07:10:00;4.82;;;3.67;;
21148;SDS011;10732;51.472;6.466;2022-12-20T07:12:26;7.05;;;3.85;;
21148;SDS011;10732;51.472;6.466;2022-12-20T07:14:51;7.97;;;3.80;;
21148;SDS011;10732;51.472;6.466;2022-12-20T07:17:17;4.28;;;3.30;;
21148;SDS011;10732;51.472;6.466;2022-12-20T07:19:42;6.32;;;4.00;;
21148;SDS011;10732;51.472;6.466;2022-12-20T07:22:08;6.78;;;4.20;;
21148;SDS011;10732;51.472;6.466;2022-12-20T07:24:33;4.57;;;3.70;;
21148;SDS011;10732;51.472;6.466;2022-12-20T07:26:59;6.68;;;3.90;;
21148;SDS011;10732;51.472;6.466;2022-12-20T07:29:25;7.50;;;3.85;;
21148;SDS011;10732;51.472;6.466;2022-12-20T07:31:51;8.98;;;4.13;;
21148;SDS011;10732;51.472;6.466;2022-12-20T07:34:17;7.28;;;3.90;;
21148;SDS011;10732;51.472;6.466;2022-12-20T07:36:43;7.43;;;4.18;;
21148;SDS011;10732;51.472;6.466;2022-12-20T07:39:08;5.68;;;3.80;;
21148;SDS011;10732;51.472;6.466;2022-12-20T07:41:34;5.18;;;3.53;;
21148;SDS011;10732;51.472;6.466;2022-12-20T07:44:00;5.55;;;3.78;;
21148;SDS011;10732;51.472;6.466;2022-12-20T07:46:25;5.78;;;4.25;;
21148;SDS011;10732;51.472;6.466;2022-12-20T07:48:51;6.35;;;4.07;;
21148;SDS011;10732;51.472;6.466;2022-12-20T07:51:18;7.68;;;3.60;;
21148;SDS011;10732;51.472;6.466;2022-12-20T07:53:47;5.47;;;3.38;;
21148;SDS011;10732;51.472;6.466;2022-12-20T07:56:17;4.47;;;3.35;;
21148;SDS011;10732;51.472;6.466;2022-12-20T07:58:43;3.72;;;2.80;;
21148;SDS011;10732;51.472;6.466;2022-12-20T08:01:09;9.32;;;3.38;;
21148;SDS011;10732;51.472;6.466;2022-12-20T08:03:37;7.25;;;3.20;;
21148;SDS011;10732;51.472;6.466;2022-12-20T08:06:06;5.18;;;3.40;;
21148;SDS011;10732;51.472;6.466;2022-12-20T08:08:33;6.32;;;3.47;;
21148;SDS011;10732;51.472;6.466;2022-12-20T08:11:02;5.70;;;3.60;;
21148;SDS011;10732;51.472;6.466;2022-12-20T08:13:30;5.22;;;2.88;;
21148;SDS011;10732;51.472;6.466;2022-12-20T08:15:57;6.10;;;2.90;;
21148;SDS011;10732;51.472;6.466;2022-12-20T08:18:24;4.78;;;2.95;;
21148;SDS011;10732;51.472;6.466;2022-12-20T08:20:49;5.85;;;3.00;;
21148;SDS011;10732;51.472;6.466;2022-12-20T08:23:15;4.60;;;2.90;;
21148;SDS011;10732;51.472;6.466;2022-12-20T08:25:41;7.55;;;3.25;;
21148;SDS011;10732;51.472;6.466;2022-12-20T08:28:06;4.65;;;3.03;;
21148;SDS011;10732;51.472;6.466;2022-12-20T08:30:32;4.80;;;3.20;;
21148;SDS011;10732;51.472;6.466;2022-12-20T08:32:58;5.32;;;3.15;;
21148;SDS011;10732;51.472;6.466;2022-12-20T08:35:23;6.25;;;3.40;;
21148;SDS011;10732;51.472;6.466;2022-12-20T08:37:52;5.28;;;3.28;;
21148;SDS011;10732;51.472;6.466;2022-12-20T08:40:18;6.38;;;3.00;;
21148;SDS011;10732;51.472;6.466;2022-12-20T08:42:44;4.30;;;3.00;;
21148;SDS011;10732;51.472;6.466;2022-12-20T08:45:09;5.30;;;3.05;;
21148;SDS011;10732;51.472;6.466;2022-12-20T08:47:36;4.78;;;2.95;;
21148;SDS011;10732;51.472;6.466;2022-12-20T08:50:02;5.57;;;2.70;;
21148;SDS011;10732;51.472;6.466;2022-12-20T08:52:28;3.97;;;2.90;;
21148;SDS011;10732;51.472;6.466;2022-12-20T08:54:54;5.93;;;3.22;;
21148;SDS011;10732;51.472;6.466;2022-12-20T08:57:19;3.33;;;2.80;;
21148;SDS011;10732;51.472;6.466;2022-12-20T08:59:45;3.63;;;2.60;;
21148;SDS011;10732;51.472;6.466;2022-12-20T09:02:10;3.78;;;2.38;;
21148;SDS011;10732;51.472;6.466;2022-12-20T09:04:36;4.15;;;3.03;;
21148;SDS011;10732;51.472;6.466;2022-12-20T09:07:02;5.57;;;2.80;;
21148;SDS011;10732;51.472;6.466;2022-12-20T09:09:27;6.88;;;3.47;;
21148;SDS011;10732;51.472;6.466;2022-12-20T09:11:53;4.10;;;3.00;;
21148;SDS011;10732;51.472;6.466;2022-12-20T09:14:19;5.10;;;3.53;;
21148;SDS011;10732;51.472;6.466;2022-12-20T09:16:45;4.57;;;2.80;;
21148;SDS011;10732;51.472;6.466;2022-12-20T09:19:10;5.10;;;3.30;;
21148;SDS011;10732;51.472;6.466;2022-12-20T09:21:37;6.93;;;3.30;;
21148;SDS011;10732;51.472;6.466;2022-12-20T09:24:03;3.95;;;2.83;;
21148;SDS011;10732;51.472;6.466;2022-12-20T09:26:30;5.22;;;3.42;;
21148;SDS011;10732;51.472;6.466;2022-12-20T09:28:56;4.82;;;3.53;;
21148;SDS011;10732;51.472;6.466;2022-12-20T09:31:23;5.38;;;3.35;;
21148;SDS011;10732;51.472;6.466;2022-12-20T09:33:51;6.40;;;3.30;;
21148;SDS011;10732;51.472;6.466;2022-12-20T09:36:18;6.93;;;3.15;;
21148;SDS011;10732;51.472;6.466;2022-12-20T09:38:45;7.43;;;3.40;;
21148;SDS011;10732;51.472;6.466;2022-12-20T09:41:19;7.15;;;3.38;;
21148;SDS011;10732;51.472;6.466;2022-12-20T09:43:53;6.43;;;3.50;;
21148;SDS011;10732;51.472;6.466;2022-12-20T09:46:19;5.97;;;3.60;;
21148;SDS011;10732;51.472;6.466;2022-12-20T09:48:46;6.10;;;3.53;;
21148;SDS011;10732;51.472;6.466;2022-12-20T09:54:14;6.82;;;3.80;;
21148;SDS011;10732;51.472;6.466;2022-12-20T09:56:56;6.85;;;3.42;;
21148;SDS011;10732;51.472;6.466;2022-12-20T09:59:37;4.05;;;3.42;;
21148;SDS011;10732;51.472;6.466;2022-12-20T10:02:12;3.25;;;2.90;;
21148;SDS011;10732;51.472;6.466;2022-12-20T10:04:43;8.25;;;3.83;;
21148;SDS011;10732;51.472;6.466;2022-12-20T10:09:45;7.22;;;3.08;;
21148;SDS011;10732;51.472;6.466;2022-12-20T10:20:44;6.22;;;3.63;;
21148;SDS011;10732;51.472;6.466;2022-12-20T10:23:32;5.80;;;3.20;;
21148;SDS011;10732;51.472;6.466;2022-12-20T10:26:10;5.80;;;3.17;;
21148;SDS011;10732;51.472;6.466;2022-12-20T10:28:37;5.57;;;3.25;;
21148;SDS011;10732;51.472;6.466;2022-12-20T10:31:10;7.88;;;3.30;;
21148;SDS011;10732;51.472;6.466;2022-12-20T10:33:38;6.90;;;3.53;;
21148;SDS011;10732;51.472;6.466;2022-12-20T10:38:50;4.97;;;3.13;;
21148;SDS011;10732;51.472;6.466;2022-12-20T10:41:19;8.70;;;3.25;;
21148;SDS011;10732;51.472;6.466;2022-12-20T10:43:48;6.20;;;3.10;;
21148;SDS011;10732;51.472;6.466;2022-12-20T10:51:54;7.22;;;3.60;;
21148;SDS011;10732;51.472;6.466;2022-12-20T10:54:31;6.60;;;3.00;;
21148;SDS011;10732;51.472;6.466;2022-12-20T10:56:58;8.50;;;3.65;;
21148;SDS011;10732;51.472;6.466;2022-12-20T10:59:30;7.00;;;3.13;;
21148;SDS011;10732;51.472;6.466;2022-12-20T11:02:00;10.50;;;3.50;;
21148;SDS011;10732;51.472;6.466;2022-12-20T11:04:44;5.18;;;2.88;;
21148;SDS011;10732;51.472;6.466;2022-12-20T11:07:52;7.85;;;3.55;;
21148;SDS011;10732;51.472;6.466;2022-12-20T11:10:26;10.43;;;4.18;;
21148;SDS011;10732;51.472;6.466;2022-12-20T11:12:53;7.55;;;3.88;;
21148;SDS011;10732;51.472;6.466;2022-12-20T11:15:24;8.05;;;3.80;;
21148;SDS011;10732;51.472;6.466;2022-12-20T11:23:40;9.75;;;3.60;;
21148;SDS011;10732;51.472;6.466;2022-12-20T11:26:24;6.28;;;3.17;;
21148;SDS011;10732;51.472;6.466;2022-12-20T11:28:58;6.25;;;3.30;;
21148;SDS011;10732;51.472;6.466;2022-12-20T11:37:36;4.30;;;2.60;;
21148;SDS011;10732;51.472;6.466;2022-12-20T11:42:59;6.28;;;3.15;;
21148;SDS011;10732;51.472;6.466;2022-12-20T11:51:48;5.57;;;2.80;;
21148;SDS011;10732;51.472;6.466;2022-12-20T11:54:26;4.93;;;2.90;;
21148;SDS011;10732;51.472;6.466;2022-12-20T11:56:58;8.15;;;2.75;;
21148;SDS011;10732;51.472;6.466;2022-12-20T11:59:34;4.32;;;2.75;;
21148;SDS011;10732;51.472;6.466;2022-12-20T12:04:55;3.63;;;2.85;;
21148;SDS011;10732;51.472;6.466;2022-12-20T12:07:28;5.35;;;3.10;;
21148;SDS011;10732;51.472;6.466;2022-12-20T12:18:21;8.38;;;3.30;;
21148;SDS011;10732;51.472;6.466;2022-12-20T12:20:51;4.80;;;3.05;;
21148;SDS011;10732;51.472;6.466;2022-12-20T12:26:27;3.63;;;2.88;;
21148;SDS011;10732;51.472;6.466;2022-12-20T12:28:56;7.30;;;2.60;;
21148;SDS011;10732;51.472;6.466;2022-12-20T12:31:27;3.47;;;2.58;;
21148;SDS011;10732;51.472;6.466;2022-12-20T12:34:13;5.47;;;2.45;;
21148;SDS011;10732;51.472;6.466;2022-12-20T12:39:51;3.95;;;2.38;;
21148;SDS011;10732;51.472;6.466;2022-12-20T12:45:54;6.10;;;2.45;;
21148;SDS011;10732;51.472;6.466;2022-12-20T12:51:03;3.40;;;2.20;;
21148;SDS011;10732;51.472;6.466;2022-12-20T13:09:34;3.60;;;2.22;;
21148;SDS011;10732;51.472;6.466;2022-12-20T13:12:45;6.28;;;2.42;;
21148;SDS011;10732;51.472;6.466;2022-12-20T13:15:10;3.33;;;2.30;;
21148;SDS011;10732;51.472;6.466;2022-12-20T13:17:51;6.20;;;2.50;;
21148;SDS011;10732;51.472;6.466;2022-12-20T13:23:33;4.65;;;2.80;;
21148;SDS011;10732;51.472;6.466;2022-12-20T13:30:40;6.22;;;2.90;;
21148;SDS011;10732;51.472;6.466;2022-12-20T13:33:20;6.82;;;3.13;;
21148;SDS011;10732;51.472;6.466;2022-12-20T13:38:47;10.75;;;3.58;;
21148;SDS011;10732;51.472;6.466;2022-12-20T13:44:09;8.82;;;3.75;;
21148;SDS011;10732;51.472;6.466;2022-12-20T13:49:34;6.82;;;3.38;;
21148;SDS011;10732;51.472;6.466;2022-12-20T13:54:41;7.38;;;3.45;;
21148;SDS011;10732;51.472;6.466;2022-12-20T13:57:10;6.95;;;3.67;;
21148;SDS011;10732;51.472;6.466;2022-12-20T13:59:42;7.38;;;3.80;;
21148;SDS011;10732;51.472;6.466;2022-12-20T14:02:16;7.25;;;3.50;;
21148;SDS011;10732;51.472;6.466;2022-12-20T14:04:56;8.27;;;3.75;;
21148;SDS011;10732;51.472;6.466;2022-12-20T14:07:26;5.22;;;3.63;;
21148;SDS011;10732;51.472;6.466;2022-12-20T14:09:54;7.65;;;3.83;;
21148;SDS011;10732;51.472;6.466;2022-12-20T14:12:21;5.45;;;3.45;;
21148;SDS011;10732;51.472;6.466;2022-12-20T14:14:48;6.30;;;3.38;;
21148;SDS011;10732;51.472;6.466;2022-12-20T14:17:22;6.20;;;3.40;;
21148;SDS011;10732;51.472;6.466;2022-12-20T14:20:05;8.35;;;4.20;;
21148;SDS011;10732;51.472;6.466;2022-12-20T14:22:39;6.85;;;3.63;;
21148;SDS011;10732;51.472;6.466;2022-12-20T14:25:10;6.07;;;3.47;;
21148;SDS011;10732;51.472;6.466;2022-12-20T14:27:39;8.45;;;3.80;;
21148;SDS011;10732;51.472;6.466;2022-12-20T14:30:05;5.40;;;3.72;;
21148;SDS011;10732;51.472;6.466;2022-12-20T14:32:50;6.53;;;3.58;;
21148;SDS011;10732;51.472;6.466;2022-12-20T14:35:19;7.13;;;4.22;;
21148;SDS011;10732;51.472;6.466;2022-12-20T14:37:51;8.32;;;4.18;;
21148;SDS011;10732;51.472;6.466;2022-12-20T14:40:19;9.15;;;5.75;;
21148;SDS011;10732;51.472;6.466;2022-12-20T14:42:45;5.47;;;3.25;;
21148;SDS011;10732;51.472;6.466;2022-12-20T14:47:37;5.50;;;3.38;;
21148;SDS011;10732;51.472;6.466;2022-12-20T14:50:19;6.43;;;3.65;;
21148;SDS011;10732;51.472;6.466;2022-12-20T14:52:51;5.70;;;3.50;;
21148;SDS011;10732;51.472;6.466;2022-12-20T14:58:00;7.22;;;3.53;;
21148;SDS011;10732;51.472;6.466;2022-12-20T15:00:30;7.10;;;3.85;;
21148;SDS011;10732;51.472;6.466;2022-12-20T15:03:16;7.60;;;3.80;;
21148;SDS011;10732;51.472;6.466;2022-12-20T15:05:47;7.40;;;3.70;;
21148;SDS011;10732;51.472;6.466;2022-12-20T15:08:18;5.63;;;3.88;;
21148;SDS011;10732;51.472;6.466;2022-12-20T15:13:18;5.57;;;3.35;;
21148;SDS011;10732;51.472;6.466;2022-12-20T15:15:46;6.95;;;3.60;;
21148;SDS011;10732;51.472;6.466;2022-12-20T15:18:12;6.55;;;3.22;;
21148;SDS011;10732;51.472;6.466;2022-12-20T15:20:40;7.93;;;3.60;;
21148;SDS011;10732;51.472;6.466;2022-12-20T15:23:40;5.40;;;3.10;;
21148;SDS011;10732;51.472;6.466;2022-12-20T15:25:59;5.60;;;3.92;;
21148;SDS011;10732;51.472;6.466;2022-12-20T15:28:25;4.10;;;3.08;;
21148;SDS011;10732;51.472;6.466;2022-12-20T15:30:52;6.75;;;3.22;;
21148;SDS011;10732;51.472;6.466;2022-12-20T15:33:22;5.68;;;3.08;;
21148;SDS011;10732;51.472;6.466;2022-12-20T15:35:51;4.68;;;3.60;;
21148;SDS011;10732;51.472;6.466;2022-12-20T15:38:18;7.20;;;3.50;;
21148;SDS011;10732;51.472;6.466;2022-12-20T15:40:49;6.05;;;3.10;;
21148;SDS011;10732;51.472;6.466;2022-12-20T15:43:18;6.00;;;3.20;;
21148;SDS011;10732;51.472;6.466;2022-12-20T15:45:46;4.85;;;3.17;;
21148;SDS011;10732;51.472;6.466;2022-12-20T15:48:17;5.55;;;3.53;;
21148;SDS011;10732;51.472;6.466;2022-12-20T15:50:55;5.10;;;3.22;;
21148;SDS011;10732;51.472;6.466;2022-12-20T15:53:24;7.18;;;3.47;;
21148;SDS011;10732;51.472;6.466;2022-12-20T15:55:57;7.60;;;3.30;;
21148;SDS011;10732;51.472;6.466;2022-12-20T15:58:23;5.18;;;3.13;;
21148;SDS011;10732;51.472;6.466;2022-12-20T16:00:49;4.63;;;2.95;;
21148;SDS011;10732;51.472;6.466;2022-12-20T16:03:19;6.32;;;3.28;;
21148;SDS011;10732;51.472;6.466;2022-12-20T16:05:47;6.30;;;3.03;;
21148;SDS011;10732;51.472;6.466;2022-12-20T16:08:15;4.78;;;3.20;;
21148;SDS011;10732;51.472;6.466;2022-12-20T16:10:43;5.78;;;3.47;;
21148;SDS011;10732;51.472;6.466;2022-12-20T16:13:14;9.90;;;3.92;;
21148;SDS011;10732;51.472;6.466;2022-12-20T16:15:41;4.57;;;3.20;;
21148;SDS011;10732;51.472;6.466;2022-12-20T16:18:07;8.55;;;3.83;;
21148;SDS011;10732;51.472;6.466;2022-12-20T16:20:33;5.13;;;3.90;;
21148;SDS011;10732;51.472;6.466;2022-12-20T16:22:59;4.93;;;3.25;;
21148;SDS011;10732;51.472;6.466;2022-12-20T16:25:29;5.38;;;3.85;;
21148;SDS011;10732;51.472;6.466;2022-12-20T16:27:56;4.30;;;3.75;;
21148;SDS011;10732;51.472;6.466;2022-12-20T16:30:22;9.45;;;3.90;;
21148;SDS011;10732;51.472;6.466;2022-12-20T16:32:48;4.90;;;4.13;;
21148;SDS011;10732;51.472;6.466;2022-12-20T16:35:22;5.88;;;4.20;;
21148;SDS011;10732;51.472;6.466;2022-12-20T16:37:49;6.97;;;4.20;;
21148;SDS011;10732;51.472;6.466;2022-12-20T16:40:15;5.32;;;3.78;;
21148;SDS011;10732;51.472;6.466;2022-12-20T16:42:40;7.18;;;3.88;;
21148;SDS011;10732;51.472;6.466;2022-12-20T16:45:10;6.18;;;3.65;;
21148;SDS011;10732;51.472;6.466;2022-12-20T16:47:40;6.38;;;3.35;;
21148;SDS011;10732;51.472;6.466;2022-12-20T16:50:06;5.18;;;3.65;;
21148;SDS011;10732;51.472;6.466;2022-12-20T16:52:32;7.35;;;3.47;;
21148;SDS011;10732;51.472;6.466;2022-12-20T16:55:01;6.45;;;3.42;;
21148;SDS011;10732;51.472;6.466;2022-12-20T16:57:28;6.65;;;3.72;;
21148;SDS011;10732;51.472;6.466;2022-12-20T16:59:54;5.57;;;3.78;;
21148;SDS011;10732;51.472;6.466;2022-12-20T17:02:30;8.60;;;4.43;;
21148;SDS011;10732;51.472;6.466;2022-12-20T17:04:57;6.60;;;4.70;;